createdAt,value
2023-02-09T00:03:57.203Z,80.78
2023-02-09T00:08:59.118Z,80.84
2023-02-09T00:14:00.534Z,80.92
2023-02-09T00:19:01.998Z,80.61
2023-02-09T00:24:04.251Z,80.76
2023-02-09T00:29:06.785Z,81.07
2023-02-09T00:34:08.840Z,81.50
2023-02-09T00:39:10.385Z,81.46
2023-02-09T00:44:12.314Z,81.63
2023-02-09T00:49:13.770Z,81.70
2023-02-09T00:54:16.933Z,81.85
2023-02-09T00:59:20.011Z,81.83
2023-02-09T01:04:21.650Z,82.18
2023-02-09T01:09:23.533Z,81.45
2023-02-09T01:14:25.044Z,81.29
2023-02-09T01:19:26.797Z,81.02
2023-02-09T01:24:29.447Z,80.94
2023-02-09T01:29:30.887Z,80.27
2023-02-09T01:34:32.515Z,80.34
2023-02-09T01:39:33.951Z,80.07
2023-02-09T01:44:35.507Z,80.12
2023-02-09T01:49:38.128Z,80.05
2023-02-09T01:54:44.579Z,79.58
2023-02-09T01:59:51.703Z,80.26
2023-02-09T02:04:53.770Z,80.25
2023-02-09T02:09:56.044Z,79.73
2023-02-09T02:14:57.475Z,79.56
2023-02-09T02:20:53.225Z,78.71
2023-02-09T02:26:50.060Z,80.10
2023-02-09T02:32:17.719Z,80.44
2023-02-09T02:37:37.179Z,80.45
2023-02-09T02:42:49.182Z,80.27
2023-02-09T02:48:15.526Z,79.94
2023-02-09T02:53:21.596Z,80.14
2023-02-09T02:58:25.628Z,80.00
2023-02-09T03:03:33.155Z,79.93
2023-02-09T03:09:01.471Z,79.94
2023-02-09T03:14:33.268Z,79.55
2023-02-09T03:19:48.381Z,79.50
2023-02-09T03:25:04.182Z,79.68
2023-02-09T03:30:08.596Z,79.24
2023-02-09T03:35:12.808Z,79.64
2023-02-09T03:40:14.309Z,79.04
2023-02-09T03:45:15.791Z,79.65
2023-02-09T03:50:17.369Z,79.59
2023-02-09T03:55:18.776Z,79.83
2023-02-09T04:00:20.419Z,79.92
2023-02-09T04:05:22.870Z,79.52
2023-02-09T04:10:24.465Z,79.98
2023-02-09T04:15:25.907Z,79.48
2023-02-09T04:20:27.404Z,79.30
2023-02-09T04:25:28.822Z,79.30
2023-02-09T04:30:30.309Z,79.58
2023-02-09T04:35:31.720Z,78.99
2023-02-09T04:40:33.146Z,79.50
2023-02-09T04:45:37.414Z,79.08
2023-02-09T04:50:38.931Z,79.21
2023-02-09T04:55:42.322Z,78.81
2023-02-09T05:00:43.964Z,78.70
2023-02-09T05:05:45.661Z,78.53
2023-02-09T05:10:47.373Z,78.84
2023-02-09T05:15:49.072Z,78.18
2023-02-09T05:20:50.854Z,78.37
2023-02-09T05:25:52.370Z,77.91
2023-02-09T05:30:54.129Z,77.81
2023-02-09T05:35:55.860Z,77.74
2023-02-09T05:40:57.361Z,77.26
2023-02-09T05:45:58.889Z,77.09
2023-02-09T05:51:00.331Z,77.33
2023-02-09T05:56:01.726Z,77.86
2023-02-09T06:01:05.293Z,77.85
2023-02-09T06:06:07.024Z,77.53
2023-02-09T06:11:08.479Z,78.04
2023-02-09T06:16:10.161Z,77.72
2023-02-09T06:21:12.136Z,78.09
2023-02-09T06:26:15.860Z,78.04
2023-02-09T06:31:17.583Z,78.02
2023-02-09T06:36:19.152Z,78.15
2023-02-09T06:41:20.604Z,78.30
2023-02-09T06:46:22.198Z,78.35
2023-02-09T06:51:24.123Z,78.31
2023-02-09T06:56:25.859Z,78.44
2023-02-09T07:01:27.334Z,78.64
2023-02-09T07:06:28.920Z,78.34
2023-02-09T07:11:30.546Z,78.08
2023-02-09T07:16:32.017Z,78.62
2023-02-09T07:21:33.499Z,78.65
2023-02-09T07:26:34.926Z,79.20
2023-02-09T07:31:36.436Z,79.74
2023-02-09T07:36:38.087Z,79.90
2023-02-09T07:41:39.759Z,80.41
2023-02-09T07:46:41.364Z,80.66
2023-02-09T07:51:43.566Z,80.52
2023-02-09T07:56:45.000Z,81.02
2023-02-09T08:01:46.599Z,81.28
2023-02-09T08:06:48.320Z,81.01
2023-02-09T08:11:55.732Z,81.14
2023-02-09T08:17:20.972Z,81.65
2023-02-09T08:22:24.668Z,81.59
2023-02-09T08:27:26.692Z,82.01
2023-02-09T08:32:28.122Z,82.07
2023-02-09T08:37:29.587Z,82.28
2023-02-09T08:42:31.063Z,82.40
2023-02-09T08:47:32.546Z,82.80
2023-02-09T08:52:33.976Z,83.58
2023-02-09T08:57:44.058Z,83.28
2023-02-09T09:02:46.275Z,83.42
2023-02-09T09:07:48.118Z,83.48
2023-02-09T09:12:49.593Z,84.14
2023-02-09T09:17:51.075Z,84.54
2023-02-09T09:22:52.589Z,84.47
2023-02-09T09:27:54.091Z,85.05
2023-02-09T09:32:55.628Z,85.30
2023-02-09T09:37:58.412Z,85.56
2023-02-09T09:43:19.015Z,85.47
2023-02-09T09:48:35.019Z,85.77
2023-02-09T09:53:36.888Z,86.46
2023-02-09T09:58:43.711Z,86.00
2023-02-09T10:03:45.220Z,87.06
2023-02-09T10:09:01.199Z,86.41
2023-02-09T10:14:02.817Z,85.98
2023-02-09T10:19:17.175Z,85.87
2023-02-09T10:24:27.040Z,85.42
2023-02-09T10:29:28.639Z,85.49
2023-02-09T10:34:38.943Z,85.53
2023-02-09T10:39:40.711Z,85.54
2023-02-09T10:44:49.548Z,85.74
2023-02-09T10:49:55.048Z,85.56
2023-02-09T10:55:00.658Z,85.66
2023-02-09T11:00:26.594Z,85.82
2023-02-09T11:05:32.123Z,86.43
2023-02-09T11:10:40.325Z,86.12
2023-02-09T11:15:50.398Z,85.69
2023-02-09T11:21:01.102Z,85.57
2023-02-09T11:26:20.427Z,85.55
2023-02-09T11:31:34.072Z,85.48
2023-02-09T11:37:05.435Z,85.93
2023-02-09T11:42:34.538Z,85.47
2023-02-09T11:47:53.475Z,86.22
2023-02-09T11:52:59.331Z,86.22
2023-02-09T11:58:33.374Z,86.50
2023-02-09T12:03:34.821Z,86.46
2023-02-09T12:08:55.073Z,87.08
2023-02-09T12:14:14.188Z,87.65
2023-02-09T12:19:25.970Z,87.81
2023-02-09T12:24:39.151Z,87.54
2023-02-09T12:29:41.590Z,88.25
2023-02-09T12:34:49.427Z,88.70
2023-02-09T12:40:06.016Z,88.63
2023-02-09T12:45:35.117Z,88.21
2023-02-09T12:50:43.581Z,87.28
2023-02-09T12:56:01.559Z,88.52
2023-02-09T13:01:03.686Z,88.81
2023-02-09T13:06:10.067Z,87.90
2023-02-09T13:11:23.391Z,87.93
2023-02-09T13:16:24.823Z,88.65
2023-02-09T13:21:57.589Z,88.47
2023-02-09T13:26:59.593Z,89.00
2023-02-09T13:32:17.990Z,91.35
2023-02-09T13:37:49.002Z,91.53
2023-02-09T13:43:06.747Z,86.11
2023-02-09T13:48:24.573Z,83.18
2023-02-09T13:53:28.264Z,82.13
2023-02-09T13:58:35.293Z,83.24
2023-02-09T14:03:57.517Z,85.32
2023-02-09T14:09:02.407Z,87.47
2023-02-09T14:14:09.291Z,88.92
2023-02-09T14:19:31.041Z,89.07
2023-02-09T14:24:43.813Z,90.18
2023-02-09T14:29:47.715Z,90.30
2023-02-09T14:34:49.758Z,90.42
2023-02-09T14:39:55.524Z,89.87
2023-02-09T14:45:00.194Z,89.24
2023-02-09T14:50:02.955Z,89.78
2023-02-09T14:55:07.846Z,89.86
2023-02-09T15:00:17.009Z,88.98
2023-02-09T15:05:20.001Z,88.29
2023-02-09T15:10:27.367Z,88.68
2023-02-09T15:15:29.025Z,88.60
2023-02-09T15:20:31.406Z,88.08
2023-02-09T15:25:32.931Z,87.74
2023-02-09T15:30:35.000Z,87.67
2023-02-09T15:35:36.463Z,87.84
2023-02-09T15:41:07.919Z,87.24
2023-02-09T15:46:21.957Z,87.12
2023-02-09T15:51:26.046Z,86.69
2023-02-09T15:56:28.130Z,86.56
2023-02-09T16:01:33.827Z,86.59
2023-02-09T16:06:35.663Z,86.55
2023-02-09T16:11:40.510Z,86.11
2023-02-09T16:16:43.985Z,86.33
2023-02-09T16:21:49.673Z,86.13
2023-02-09T16:26:51.386Z,86.02
2023-02-09T16:31:53.014Z,86.39
2023-02-09T16:36:54.451Z,86.34
2023-02-09T16:41:57.246Z,86.19
2023-02-09T16:47:00.519Z,86.23
2023-02-09T16:52:06.280Z,86.02
2023-02-09T16:57:11.623Z,85.88
2023-02-09T17:02:33.748Z,85.79
2023-02-09T17:07:48.765Z,85.89
2023-02-09T17:12:55.339Z,85.77
2023-02-09T17:18:02.242Z,86.01
2023-02-09T17:23:04.494Z,86.19
2023-02-09T17:28:06.007Z,86.35
2023-02-09T17:33:15.942Z,86.04
2023-02-09T17:38:46.753Z,85.97
2023-02-09T17:43:50.526Z,86.16
2023-02-09T17:48:51.957Z,86.51
2023-02-09T17:53:53.374Z,86.14
2023-02-09T17:58:57.033Z,86.17
2023-02-09T18:04:00.870Z,85.92
2023-02-09T18:09:04.798Z,86.24
2023-02-09T18:14:06.514Z,86.24
2023-02-09T18:19:09.250Z,86.42
2023-02-09T18:24:10.864Z,86.46
2023-02-09T18:29:12.362Z,86.16
2023-02-09T18:34:15.517Z,86.24
2023-02-09T18:39:17.190Z,86.72
2023-02-09T18:44:18.647Z,86.17
2023-02-09T18:49:20.470Z,85.96
2023-02-09T18:54:21.947Z,86.12
2023-02-09T18:59:27.938Z,85.96
2023-02-09T19:04:29.366Z,88.03
2023-02-09T19:09:30.800Z,88.37
2023-02-09T19:14:37.416Z,88.21
2023-02-09T19:19:38.963Z,88.59
2023-02-09T19:24:40.462Z,88.15
2023-02-09T19:29:42.307Z,87.76
2023-02-09T19:34:45.794Z,87.58
2023-02-09T19:40:00.257Z,86.92
2023-02-09T19:45:02.086Z,87.22
2023-02-09T19:50:04.238Z,87.40
2023-02-09T19:55:06.203Z,87.58
2023-02-09T20:00:08.470Z,87.57
2023-02-09T20:05:10.057Z,87.42
2023-02-09T20:10:11.647Z,87.05
2023-02-09T20:15:13.114Z,86.30
2023-02-09T20:20:14.731Z,86.19
2023-02-09T20:25:17.455Z,86.19
2023-02-09T20:30:19.004Z,86.22
2023-02-09T20:35:20.497Z,86.31
2023-02-09T20:40:22.729Z,86.13
2023-02-09T20:45:43.254Z,86.33
2023-02-09T20:50:45.334Z,85.79
2023-02-09T20:55:46.938Z,85.69
2023-02-09T21:00:48.881Z,85.69
2023-02-09T21:05:50.485Z,85.71
2023-02-09T21:10:58.688Z,85.45
2023-02-09T21:16:00.311Z,85.80
2023-02-09T21:21:07.731Z,85.54
2023-02-09T21:26:11.896Z,85.21
2023-02-09T21:31:16.402Z,85.10
2023-02-09T21:36:17.913Z,85.08
2023-02-09T21:41:40.255Z,85.11
2023-02-09T21:46:42.346Z,85.24
2023-02-09T21:51:43.800Z,85.42
2023-02-09T21:56:45.372Z,84.87
2023-02-09T22:01:46.809Z,84.61
2023-02-09T22:06:48.994Z,85.02
2023-02-09T22:11:50.991Z,85.57
2023-02-09T22:16:52.466Z,85.31
2023-02-09T22:21:56.627Z,85.48
2023-02-09T22:26:58.042Z,85.31
2023-02-09T22:31:59.447Z,84.99
2023-02-09T22:37:00.854Z,85.00
2023-02-09T22:42:02.260Z,85.03
2023-02-09T22:47:04.039Z,85.22
2023-02-09T22:52:05.585Z,84.58
2023-02-09T22:57:07.173Z,84.78
2023-02-09T23:02:09.634Z,84.72
2023-02-09T23:07:12.395Z,84.80
2023-02-09T23:12:13.848Z,85.00
2023-02-09T23:17:15.310Z,84.27
2023-02-09T23:22:16.738Z,84.53
2023-02-09T23:27:19.259Z,84.15
2023-02-09T23:32:20.694Z,84.67
2023-02-09T23:37:36.892Z,84.34
2023-02-09T23:42:39.217Z,84.39
2023-02-09T23:47:40.664Z,84.42
2023-02-09T23:52:42.345Z,84.48
2023-02-09T23:57:43.838Z,84.52
